createdAt,value
2018-11-27T00:02:24.278Z,13.50
2018-11-27T00:04:51.988Z,13.30
2018-11-27T00:07:19.608Z,12.80
2018-11-27T00:09:47.245Z,12.97
2018-11-27T00:12:14.839Z,12.70
2018-11-27T00:14:42.474Z,13.33
2018-11-27T00:17:10.058Z,13.47
2018-11-27T00:19:37.730Z,13.57
2018-11-27T00:22:06.026Z,13.27
2018-11-27T00:24:33.612Z,13.20
2018-11-27T00:27:01.820Z,13.70
2018-11-27T00:29:29.395Z,13.77
2018-11-27T00:31:57.057Z,12.23
2018-11-27T00:34:24.685Z,12.83
2018-11-27T00:36:52.323Z,13.27
2018-11-27T00:39:19.938Z,13.80
2018-11-27T00:41:47.580Z,13.63
2018-11-27T00:44:15.156Z,13.60
2018-11-27T00:46:42.719Z,12.57
2018-11-27T00:49:10.270Z,13.60
2018-11-27T00:51:37.868Z,12.63
2018-11-27T00:54:05.494Z,12.33
2018-11-27T00:56:33.025Z,12.83
2018-11-27T00:59:00.669Z,13.43
2018-11-27T01:01:28.267Z,13.50
2018-11-27T01:03:55.930Z,14.27
2018-11-27T01:06:23.558Z,14.00
2018-11-27T01:08:51.176Z,12.77
2018-11-27T01:11:18.779Z,13.53
2018-11-27T01:13:46.322Z,14.40
2018-11-27T01:16:13.907Z,13.80
2018-11-27T01:18:41.439Z,14.73
2018-11-27T01:21:09.045Z,14.23
2018-11-27T01:23:36.675Z,14.33
2018-11-27T01:26:04.429Z,13.67
2018-11-27T01:28:32.025Z,13.20
2018-11-27T01:30:59.587Z,12.63
2018-11-27T01:33:27.195Z,12.50
2018-11-27T01:35:54.742Z,12.17
2018-11-27T01:38:22.369Z,12.97
2018-11-27T01:40:50.001Z,14.03
2018-11-27T01:43:17.582Z,14.00
2018-11-27T01:45:45.213Z,13.27
2018-11-27T01:48:12.811Z,12.43
2018-11-27T01:50:40.410Z,13.17
2018-11-27T01:53:07.930Z,13.20
2018-11-27T01:55:35.538Z,13.87
2018-11-27T01:58:03.174Z,15.40
2018-11-27T02:00:30.852Z,14.53
2018-11-27T02:02:59.666Z,15.67
2018-11-27T02:05:27.741Z,16.27
2018-11-27T02:07:55.525Z,15.10
2018-11-27T02:10:23.234Z,15.77
2018-11-27T02:12:51.965Z,16.90
2018-11-27T02:15:20.721Z,15.80
2018-11-27T02:17:48.316Z,16.87
2018-11-27T02:20:15.994Z,15.70
2018-11-27T02:22:43.589Z,17.97
2018-11-27T02:25:16.505Z,16.53
2018-11-27T02:27:44.162Z,16.87
2018-11-27T02:30:13.395Z,16.63
2018-11-27T02:32:41.085Z,17.13
2018-11-27T02:35:10.420Z,16.50
2018-11-27T02:37:37.990Z,17.60
2018-11-27T02:40:08.046Z,18.20
2018-11-27T02:42:35.645Z,18.57
2018-11-27T02:45:03.695Z,18.10
2018-11-27T02:47:31.313Z,17.17
2018-11-27T02:49:58.917Z,17.70
2018-11-27T02:52:26.481Z,18.77
2018-11-27T02:54:54.100Z,17.57
2018-11-27T02:57:21.656Z,17.00
2018-11-27T02:59:49.207Z,17.27
2018-11-27T03:02:16.746Z,17.90
2018-11-27T03:04:44.397Z,17.27
2018-11-27T03:07:12.007Z,18.10
2018-11-27T03:09:39.597Z,17.10
2018-11-27T03:12:07.213Z,17.10
2018-11-27T03:14:34.820Z,18.13
2018-11-27T03:17:02.428Z,16.50
2018-11-27T03:19:30.020Z,17.13
2018-11-27T03:21:57.638Z,18.07
2018-11-27T03:24:25.192Z,17.97
2018-11-27T03:26:52.769Z,16.80
2018-11-27T03:29:20.380Z,16.10
2018-11-27T03:31:47.920Z,17.57
2018-11-27T03:34:15.496Z,17.27
2018-11-27T03:36:43.130Z,17.33
2018-11-27T03:39:10.753Z,17.10
2018-11-27T03:41:38.435Z,16.07
2018-11-27T03:44:06.119Z,15.97
2018-11-27T03:46:33.716Z,16.53
2018-11-27T03:49:01.255Z,17.60
2018-11-27T03:51:28.890Z,17.77
2018-11-27T03:53:56.476Z,16.67
2018-11-27T03:56:24.071Z,15.87
2018-11-27T03:58:51.617Z,16.20
2018-11-27T04:01:19.139Z,15.60
2018-11-27T04:03:46.729Z,15.83
2018-11-27T04:06:14.277Z,14.43
2018-11-27T04:08:41.868Z,16.23
2018-11-27T04:11:09.596Z,16.70
2018-11-27T04:13:37.193Z,14.93
2018-11-27T04:16:04.814Z,15.87
2018-11-27T04:18:32.448Z,16.20
2018-11-27T04:21:00.060Z,16.97
2018-11-27T04:23:27.614Z,15.97
2018-11-27T04:25:55.200Z,17.60
2018-11-27T04:28:22.829Z,15.33
2018-11-27T04:30:51.191Z,15.43
2018-11-27T04:33:18.052Z,17.63
2018-11-27T04:35:45.685Z,17.53
2018-11-27T04:38:13.306Z,18.63
2018-11-27T04:40:40.962Z,17.37
2018-11-27T04:43:08.613Z,16.07
2018-11-27T04:45:36.247Z,16.63
2018-11-27T04:48:03.843Z,16.33
2018-11-27T04:50:31.464Z,15.13
2018-11-27T04:52:59.035Z,17.00
2018-11-27T04:55:26.624Z,17.33
2018-11-27T04:57:54.206Z,17.17
2018-11-27T05:00:22.963Z,15.93
2018-11-27T05:02:50.551Z,16.63
2018-11-27T05:05:18.279Z,15.90
2018-11-27T05:07:46.576Z,15.93
2018-11-27T05:10:15.500Z,16.00
2018-11-27T05:12:43.376Z,16.87
2018-11-27T05:15:14.838Z,16.87
2018-11-27T05:17:47.840Z,16.87
2018-11-27T05:20:11.192Z,16.87
2018-11-27T05:22:38.831Z,16.90
2018-11-27T05:25:10.710Z,16.53
2018-11-27T05:27:39.082Z,16.93
2018-11-27T05:30:23.625Z,16.33
2018-11-27T05:32:51.240Z,15.77
2018-11-27T05:35:21.975Z,17.77
2018-11-27T05:37:49.976Z,16.37
2018-11-27T05:40:18.764Z,16.23
2018-11-27T05:42:47.291Z,15.70
2018-11-27T05:45:16.301Z,16.67
2018-11-27T05:47:43.958Z,17.23
2018-11-27T05:50:12.629Z,16.70
2018-11-27T05:52:40.280Z,16.67
2018-11-27T05:55:08.954Z,17.53
2018-11-27T05:57:36.697Z,17.03
2018-11-27T06:00:08.962Z,16.87
2018-11-27T06:02:36.837Z,17.53
2018-11-27T06:05:06.067Z,17.43
2018-11-27T06:07:33.675Z,16.70
2018-11-27T06:10:01.361Z,17.27
2018-11-27T06:12:28.996Z,16.63
2018-11-27T06:14:56.614Z,17.37
2018-11-27T06:17:24.161Z,17.00
2018-11-27T06:19:51.807Z,17.50
2018-11-27T06:22:19.487Z,16.53
2018-11-27T06:24:47.122Z,16.47
2018-11-27T06:27:14.743Z,17.70
2018-11-27T06:29:42.367Z,16.87
2018-11-27T06:32:09.953Z,17.80
2018-11-27T06:34:37.594Z,16.93
2018-11-27T06:37:05.362Z,16.97
2018-11-27T06:39:32.963Z,16.10
2018-11-27T06:42:00.598Z,16.77
2018-11-27T06:44:28.216Z,17.43
2018-11-27T06:46:55.777Z,16.77
2018-11-27T06:49:23.406Z,18.13
2018-11-27T06:51:51.064Z,15.93
2018-11-27T06:54:18.685Z,18.60
2018-11-27T06:56:46.328Z,17.07
2018-11-27T06:59:14.004Z,18.03
2018-11-27T07:01:41.624Z,16.33
2018-11-27T07:04:09.296Z,17.37
2018-11-27T07:06:36.895Z,17.77
2018-11-27T07:09:07.774Z,15.37
2018-11-27T07:11:35.668Z,15.83
2018-11-27T07:14:03.286Z,16.17
2018-11-27T07:16:30.848Z,17.00
2018-11-27T07:18:58.460Z,15.20
2018-11-27T07:21:26.070Z,16.53
2018-11-27T07:23:53.720Z,16.57
2018-11-27T07:26:21.345Z,15.90
2018-11-27T07:28:48.843Z,15.57
2018-11-27T07:31:16.460Z,15.63
2018-11-27T07:33:44.031Z,14.97
2018-11-27T07:36:11.647Z,15.37
2018-11-27T07:38:39.310Z,15.77
2018-11-27T07:41:06.929Z,15.67
2018-11-27T07:43:35.125Z,13.93
2018-11-27T07:46:02.767Z,15.37
2018-11-27T07:48:30.387Z,14.80
2018-11-27T07:50:58.050Z,15.43
2018-11-27T07:53:25.694Z,16.47
2018-11-27T07:55:53.245Z,13.70
2018-11-27T07:58:20.817Z,15.77
2018-11-27T08:00:48.415Z,16.30
2018-11-27T08:03:16.026Z,15.07
2018-11-27T08:05:43.583Z,14.97
2018-11-27T08:08:13.616Z,13.50
2018-11-27T08:10:42.138Z,13.63
2018-11-27T08:13:09.940Z,15.37
2018-11-27T08:15:37.529Z,15.70
2018-11-27T08:18:05.295Z,14.17
2018-11-27T08:20:33.627Z,13.40
2018-11-27T08:23:01.262Z,14.00
2018-11-27T08:25:28.896Z,13.93
2018-11-27T08:27:56.499Z,16.80
2018-11-27T08:30:24.235Z,15.47
2018-11-27T08:32:52.689Z,13.50
2018-11-27T08:35:23.439Z,13.50
2018-11-27T08:37:52.081Z,14.30
2018-11-27T08:40:20.892Z,12.53
2018-11-27T08:42:48.486Z,14.07
2018-11-27T08:45:17.203Z,13.57
2018-11-27T08:47:45.558Z,14.60
2018-11-27T08:50:15.332Z,13.33
2018-11-27T08:52:46.637Z,13.97
2018-11-27T08:55:14.037Z,13.90
2018-11-27T08:57:43.119Z,13.80
2018-11-27T09:00:17.852Z,12.87
2018-11-27T09:02:45.570Z,13.37
2018-11-27T09:05:13.478Z,14.13
2018-11-27T09:07:41.552Z,13.33
2018-11-27T09:10:12.460Z,13.60
2018-11-27T09:12:40.129Z,13.67
2018-11-27T09:15:09.687Z,12.70
2018-11-27T09:17:37.318Z,12.87
2018-11-27T09:20:07.694Z,12.80
2018-11-27T09:22:35.312Z,12.87
2018-11-27T09:25:03.299Z,11.60
2018-11-27T09:27:30.931Z,12.17
2018-11-27T09:29:58.553Z,11.70
2018-11-27T09:32:26.181Z,14.33
2018-11-27T09:34:53.823Z,14.77
2018-11-27T09:37:21.486Z,12.07
2018-11-27T09:39:49.041Z,11.57
2018-11-27T09:42:16.617Z,11.27
2018-11-27T09:44:44.220Z,11.30
2018-11-27T09:47:11.779Z,12.73
2018-11-27T09:49:39.406Z,11.77
2018-11-27T09:52:07.092Z,11.70
2018-11-27T09:54:34.688Z,11.67
2018-11-27T09:57:02.277Z,9.90
2018-11-27T09:59:29.867Z,10.37
2018-11-27T10:01:57.469Z,10.67
2018-11-27T10:04:25.079Z,10.30
2018-11-27T10:06:52.708Z,10.03
2018-11-27T10:09:20.321Z,9.77
2018-11-27T10:11:48.012Z,10.80
2018-11-27T10:14:15.653Z,14.53
2018-11-27T10:16:43.264Z,10.97
2018-11-27T10:19:10.880Z,9.70
2018-11-27T10:21:38.495Z,10.10
2018-11-27T10:24:06.141Z,9.17
2018-11-27T10:26:33.754Z,9.30
2018-11-27T10:29:01.355Z,10.17
2018-11-27T10:31:28.961Z,10.77
2018-11-27T10:33:56.549Z,8.77
2018-11-27T10:36:24.193Z,10.07
2018-11-27T10:38:51.773Z,11.23
2018-11-27T10:41:19.297Z,11.33
2018-11-27T10:43:47.681Z,10.67
2018-11-27T10:46:14.585Z,12.07
2018-11-27T10:48:42.238Z,13.10
2018-11-27T10:51:09.855Z,11.53
2018-11-27T10:53:37.436Z,11.80
2018-11-27T10:56:05.999Z,11.30
2018-11-27T10:58:33.626Z,11.93
2018-11-27T11:01:06.737Z,11.83
2018-11-27T11:03:35.097Z,13.03
2018-11-27T11:06:04.379Z,11.97
2018-11-27T11:08:31.944Z,10.67
2018-11-27T11:10:59.601Z,12.10
2018-11-27T11:13:27.219Z,12.07
2018-11-27T11:15:54.813Z,13.40
2018-11-27T11:18:22.418Z,14.80
2018-11-27T11:20:50.014Z,13.07
2018-11-27T11:23:17.605Z,14.90
2018-11-27T11:25:45.268Z,14.67
2018-11-27T11:28:12.841Z,13.10
2018-11-27T11:30:40.419Z,13.83
2018-11-27T11:33:08.456Z,12.43
2018-11-27T11:35:36.099Z,12.33
2018-11-27T11:38:03.901Z,12.10
2018-11-27T11:40:31.504Z,12.83
2018-11-27T11:42:59.123Z,12.57
2018-11-27T11:45:26.755Z,12.30
2018-11-27T11:47:54.386Z,12.87
2018-11-27T11:50:24.084Z,12.87
2018-11-27T11:52:56.144Z,11.03
2018-11-27T11:55:23.714Z,11.53
2018-11-27T11:57:51.326Z,12.70
2018-11-27T12:00:21.637Z,13.67
2018-11-27T12:02:49.323Z,10.83
2018-11-27T12:05:16.909Z,12.07
2018-11-27T12:07:44.572Z,11.30
2018-11-27T12:10:13.325Z,11.93
2018-11-27T12:12:41.615Z,11.93
2018-11-27T12:15:11.609Z,12.00
2018-11-27T12:17:39.730Z,11.87
2018-11-27T12:20:09.380Z,11.87
2018-11-27T12:22:37.007Z,12.33
2018-11-27T12:25:06.582Z,12.17
2018-11-27T12:27:34.175Z,12.27
2018-11-27T12:30:01.851Z,11.90
2018-11-27T12:32:29.531Z,11.30
2018-11-27T12:34:57.203Z,12.83
2018-11-27T12:37:24.819Z,12.00
2018-11-27T12:39:52.483Z,12.43
2018-11-27T12:42:20.110Z,12.53
2018-11-27T12:44:47.695Z,12.40
2018-11-27T12:47:15.319Z,12.90
2018-11-27T12:49:42.985Z,13.20
2018-11-27T12:52:10.641Z,12.53
2018-11-27T12:54:38.311Z,13.10
2018-11-27T12:57:05.961Z,13.17
2018-11-27T12:59:33.631Z,12.00
2018-11-27T13:02:01.290Z,13.03
2018-11-27T13:04:28.919Z,12.53
2018-11-27T13:06:56.559Z,13.60
2018-11-27T13:09:24.096Z,10.80
2018-11-27T13:11:51.679Z,12.97
2018-11-27T13:14:19.292Z,14.20
2018-11-27T13:16:46.896Z,13.43
2018-11-27T13:19:14.495Z,12.67
2018-11-27T13:21:42.056Z,12.53
2018-11-27T13:24:09.599Z,12.93
2018-11-27T13:26:37.227Z,12.03
2018-11-27T13:29:05.484Z,13.20
2018-11-27T13:31:33.128Z,14.10
2018-11-27T13:34:05.289Z,13.73
2018-11-27T13:36:32.872Z,14.73
2018-11-27T13:39:11.963Z,14.90
2018-11-27T13:41:39.656Z,13.60
2018-11-27T13:44:07.244Z,15.13
2018-11-27T13:46:34.894Z,14.07
2018-11-27T13:49:02.548Z,14.80
2018-11-27T13:51:30.142Z,15.57
2018-11-27T13:53:57.763Z,14.97
2018-11-27T13:56:25.334Z,15.47
2018-11-27T14:02:02.906Z,15.17
2018-11-27T14:04:30.755Z,14.47
2018-11-27T14:06:58.359Z,14.50
2018-11-27T14:09:26.022Z,14.97
2018-11-27T14:11:53.615Z,13.53
2018-11-27T14:14:21.267Z,14.77
2018-11-27T14:16:48.913Z,14.23
2018-11-27T14:19:16.535Z,14.90
2018-11-27T14:21:44.126Z,15.40
2018-11-27T14:24:11.699Z,14.33
2018-11-27T14:26:39.299Z,14.70
2018-11-27T14:29:06.935Z,13.87
2018-11-27T14:31:34.596Z,13.90
2018-11-27T14:34:02.451Z,13.97
2018-11-27T14:36:30.026Z,12.93
2018-11-27T14:38:57.645Z,14.03
2018-11-27T14:41:25.200Z,14.50
2018-11-27T14:43:52.826Z,15.00
2018-11-27T14:46:20.415Z,16.67
2018-11-27T14:48:48.023Z,20.33
2018-11-27T14:51:15.631Z,17.40
2018-11-27T14:53:43.244Z,17.77
2018-11-27T14:56:10.873Z,21.73
2018-11-27T15:01:26.795Z,14.57
2018-11-27T15:03:54.412Z,16.30
2018-11-27T15:06:21.977Z,13.10
2018-11-27T15:08:49.569Z,13.67
2018-11-27T15:11:17.195Z,14.33
2018-11-27T15:13:44.763Z,14.00
2018-11-27T15:16:12.431Z,14.03
2018-11-27T15:18:40.108Z,15.37
2018-11-27T15:21:07.739Z,14.10
2018-11-27T15:23:35.443Z,13.60
2018-11-27T15:26:03.070Z,13.00
2018-11-27T15:28:30.685Z,12.40
2018-11-27T15:30:58.279Z,11.10
2018-11-27T15:33:28.260Z,13.73
2018-11-27T15:35:56.180Z,15.30
2018-11-27T15:38:23.723Z,15.20
2018-11-27T15:40:51.344Z,14.57
2018-11-27T15:43:19.151Z,12.60
2018-11-27T15:45:46.724Z,13.87
2018-11-27T15:48:14.336Z,13.40
2018-11-27T15:50:41.911Z,13.80
2018-11-27T15:53:09.502Z,13.87
2018-11-27T15:55:38.358Z,13.17
2018-11-27T15:58:09.281Z,13.40
2018-11-27T16:00:36.952Z,13.87
2018-11-27T16:03:05.163Z,13.90
2018-11-27T16:05:32.819Z,12.93
2018-11-27T16:08:00.508Z,13.47
2018-11-27T16:10:28.069Z,13.67
2018-11-27T16:12:55.710Z,14.37
2018-11-27T16:15:23.355Z,14.87
2018-11-27T16:17:50.965Z,14.80
2018-11-27T16:20:20.765Z,16.50
2018-11-27T16:22:49.479Z,16.47
2018-11-27T16:25:19.105Z,15.83
2018-11-27T16:27:46.648Z,13.97
2018-11-27T16:30:23.249Z,15.00
2018-11-27T16:32:50.839Z,14.60
2018-11-27T16:35:18.499Z,23.03
2018-11-27T16:37:48.474Z,15.30
2018-11-27T16:40:17.268Z,15.53
2018-11-27T16:45:20.322Z,16.50
2018-11-27T16:47:48.054Z,16.00
2018-11-27T16:50:16.390Z,20.27
2018-11-27T16:52:44.215Z,18.50
2018-11-27T16:55:12.938Z,19.37
2018-11-27T16:57:40.596Z,19.00
2018-11-27T17:00:21.506Z,21.27
2018-11-27T17:02:50.436Z,15.90
2018-11-27T17:05:17.718Z,17.00
2018-11-27T17:07:46.185Z,15.20
2018-11-27T17:10:14.779Z,16.30
2018-11-27T17:12:43.015Z,15.57
2018-11-27T17:15:14.584Z,18.20
2018-11-27T17:17:42.142Z,16.33
2018-11-27T17:20:19.067Z,16.20
2018-11-27T17:22:46.677Z,15.23
2018-11-27T17:25:14.307Z,14.47
2018-11-27T17:27:42.036Z,14.87
2018-11-27T17:30:12.840Z,14.23
2018-11-27T17:32:40.458Z,13.30
2018-11-27T17:35:09.660Z,15.77
2018-11-27T17:37:37.218Z,16.37
2018-11-27T17:40:08.103Z,15.10
2018-11-27T17:42:35.698Z,15.20
2018-11-27T17:45:05.216Z,13.40
2018-11-27T17:47:32.764Z,13.87
2018-11-27T17:50:00.423Z,14.47
2018-11-27T17:52:28.022Z,15.40
2018-11-27T17:54:55.637Z,14.57
2018-11-27T17:57:23.219Z,16.50
2018-11-27T17:59:50.845Z,15.40
2018-11-27T18:02:18.383Z,14.80
2018-11-27T18:04:45.999Z,15.67
2018-11-27T18:07:13.626Z,15.60
2018-11-27T18:09:41.206Z,16.83
2018-11-27T18:12:08.854Z,15.00
2018-11-27T18:14:36.400Z,14.60
2018-11-27T18:17:04.047Z,14.37
2018-11-27T18:19:31.605Z,13.80
2018-11-27T18:21:59.257Z,14.37
2018-11-27T18:24:26.855Z,15.27
2018-11-27T18:26:54.478Z,17.27
2018-11-27T18:29:22.114Z,13.67
2018-11-27T18:31:49.712Z,15.13
2018-11-27T18:34:17.331Z,14.33
2018-11-27T18:36:44.933Z,13.87
2018-11-27T18:39:12.510Z,13.67
2018-11-27T18:41:40.131Z,13.83
2018-11-27T18:44:07.751Z,14.20
2018-11-27T18:46:35.402Z,16.23
2018-11-27T18:49:03.006Z,15.60
2018-11-27T18:51:30.604Z,16.17
2018-11-27T18:53:58.186Z,15.60
2018-11-27T18:56:25.767Z,15.90
2018-11-27T18:58:53.343Z,15.63
2018-11-27T19:01:20.887Z,16.90
2018-11-27T19:03:48.502Z,16.57
2018-11-27T19:06:16.133Z,16.67
2018-11-27T19:08:43.714Z,22.00
2018-11-27T19:11:11.301Z,21.27
2018-11-27T19:13:38.856Z,20.17
2018-11-27T19:16:06.887Z,16.20
2018-11-27T19:18:34.529Z,17.93
2018-11-27T19:21:02.043Z,15.40
2018-11-27T19:23:29.663Z,16.93
2018-11-27T19:25:57.337Z,17.07
2018-11-27T19:28:24.930Z,16.97
2018-11-27T19:30:52.565Z,19.00
2018-11-27T19:33:20.172Z,17.20
2018-11-27T19:35:47.844Z,17.40
2018-11-27T19:38:16.862Z,16.43
2018-11-27T19:40:44.478Z,18.33
2018-11-27T19:43:12.108Z,20.07
2018-11-27T19:45:39.766Z,17.63
2018-11-27T19:48:08.341Z,16.27
2018-11-27T19:50:36.453Z,20.00
2018-11-27T19:53:11.676Z,18.77
2018-11-27T19:55:33.402Z,17.73
2018-11-27T19:58:01.046Z,18.33
2018-11-27T20:00:29.164Z,17.70
2018-11-27T20:02:56.851Z,18.67
2018-11-27T20:05:27.773Z,16.90
2018-11-27T20:07:55.453Z,16.20
2018-11-27T20:10:23.063Z,17.20
2018-11-27T20:12:50.766Z,17.53
2018-11-27T20:15:24.141Z,17.50
2018-11-27T20:17:52.317Z,17.70
2018-11-27T20:20:21.104Z,19.10
2018-11-27T20:22:48.879Z,18.03
2018-11-27T20:25:17.857Z,20.23
2018-11-27T20:27:45.551Z,19.53
2018-11-27T20:30:14.410Z,19.60
2018-11-27T20:32:43.433Z,16.77
2018-11-27T20:35:12.249Z,16.43
2018-11-27T20:37:40.028Z,17.17
2018-11-27T20:40:10.410Z,19.33
2018-11-27T20:42:38.025Z,18.07
2018-11-27T20:45:08.206Z,17.83
2018-11-27T20:47:35.893Z,17.70
2018-11-27T20:50:04.203Z,18.30
2018-11-27T20:52:31.811Z,18.10
2018-11-27T20:54:59.453Z,17.30
2018-11-27T20:57:27.080Z,16.27
2018-11-27T20:59:54.691Z,17.60
2018-11-27T21:02:30.639Z,19.53
2018-11-27T21:04:58.350Z,18.97
2018-11-27T21:07:26.082Z,19.37
2018-11-27T21:09:53.695Z,19.93
2018-11-27T21:12:21.269Z,19.23
2018-11-27T21:14:48.924Z,20.27
2018-11-27T21:17:17.138Z,19.47
2018-11-27T21:19:44.835Z,20.87
2018-11-27T21:22:12.489Z,19.90
2018-11-27T21:24:40.164Z,20.43
2018-11-27T21:27:07.863Z,19.50
2018-11-27T21:29:35.534Z,19.60
2018-11-27T21:32:03.193Z,19.40
2018-11-27T21:34:30.855Z,21.60
2018-11-27T21:36:58.502Z,21.17
2018-11-27T21:39:26.104Z,23.63
2018-11-27T21:41:53.761Z,26.80
2018-11-27T21:44:21.471Z,22.70
2018-11-27T21:46:49.151Z,23.13
2018-11-27T21:49:16.803Z,19.67
2018-11-27T21:51:44.372Z,21.43
2018-11-27T21:54:11.997Z,19.53
2018-11-27T21:56:39.579Z,17.87
2018-11-27T21:59:07.231Z,17.50
2018-11-27T22:01:34.827Z,19.17
2018-11-27T22:04:02.418Z,16.60
2018-11-27T22:06:30.078Z,16.83
2018-11-27T22:08:57.721Z,15.93
2018-11-27T22:11:25.349Z,17.30
2018-11-27T22:13:52.929Z,17.50
2018-11-27T22:16:20.525Z,16.00
2018-11-27T22:18:48.200Z,16.97
2018-11-27T22:21:15.790Z,17.13
2018-11-27T22:23:43.430Z,16.20
2018-11-27T22:26:11.046Z,19.07
2018-11-27T22:28:38.641Z,15.83
2018-11-27T22:31:06.469Z,17.30
2018-11-27T22:33:34.085Z,16.90
2018-11-27T22:36:01.706Z,16.30
2018-11-27T22:38:29.290Z,17.43
2018-11-27T22:40:56.894Z,18.80
2018-11-27T22:43:24.598Z,16.73
2018-11-27T22:45:52.210Z,17.67
2018-11-27T22:48:20.128Z,17.83
2018-11-27T22:50:47.507Z,24.73
2018-11-27T22:53:15.118Z,19.17
2018-11-27T22:55:42.745Z,18.57
2018-11-27T22:58:10.380Z,17.57
2018-11-27T23:00:43.839Z,17.27
2018-11-27T23:03:11.477Z,17.23
2018-11-27T23:05:39.134Z,17.30
2018-11-27T23:08:06.856Z,18.27
2018-11-27T23:10:35.941Z,16.47
2018-11-27T23:13:03.775Z,15.97
2018-11-27T23:15:31.405Z,15.03
2018-11-27T23:17:59.056Z,16.70
2018-11-27T23:20:26.723Z,17.70
2018-11-27T23:22:54.389Z,16.73
2018-11-27T23:25:21.995Z,19.07
2018-11-27T23:27:49.661Z,16.63
2018-11-27T23:30:20.877Z,15.57
2018-11-27T23:32:48.634Z,16.73
2018-11-27T23:35:16.315Z,16.43
2018-11-27T23:37:43.957Z,15.67
2018-11-27T23:40:12.841Z,18.57
2018-11-27T23:42:40.820Z,17.37
2018-11-27T23:45:12.345Z,47.50
2018-11-27T23:47:40.051Z,31.33
2018-11-27T23:50:09.183Z,27.33
2018-11-27T23:52:36.839Z,23.43
2018-11-27T23:55:05.584Z,21.37
2018-11-27T23:57:33.201Z,23.30
